createdAt,value
2018-11-13T00:00:23.067Z,7.23
2018-11-13T00:02:52.803Z,7.83
2018-11-13T00:05:22.449Z,8.07
2018-11-13T00:07:51.700Z,8.93
2018-11-13T00:10:21.099Z,9.37
2018-11-13T00:12:50.215Z,10.07
2018-11-13T00:15:19.509Z,8.53
2018-11-13T00:17:48.720Z,11.07
2018-11-13T00:20:18.932Z,10.23
2018-11-13T00:22:48.165Z,14.23
2018-11-13T00:25:18.297Z,11.70
2018-11-13T00:27:47.436Z,11.63
2018-11-13T00:30:24.633Z,12.53
2018-11-13T00:32:53.995Z,14.13
2018-11-13T00:35:23.412Z,11.77
2018-11-13T00:37:52.693Z,13.97
2018-11-13T00:40:21.840Z,11.00
2018-11-13T00:42:51.039Z,11.03
2018-11-13T00:45:20.218Z,11.63
2018-11-13T00:47:49.422Z,10.30
2018-11-13T00:50:19.735Z,13.37
2018-11-13T00:52:49.626Z,11.33
2018-11-13T00:55:19.020Z,11.63
2018-11-13T00:57:49.057Z,11.13
2018-11-13T01:00:20.830Z,11.67
2018-11-13T01:02:49.924Z,12.13
2018-11-13T01:05:20.370Z,10.47
2018-11-13T01:07:50.708Z,12.30
2018-11-13T01:10:20.530Z,10.60
2018-11-13T01:12:49.773Z,9.77
2018-11-13T01:15:20.297Z,9.83
2018-11-13T01:17:49.733Z,11.03
2018-11-13T01:20:19.552Z,10.57
2018-11-13T01:22:48.780Z,11.37
2018-11-13T01:25:18.445Z,9.63
2018-11-13T01:27:47.654Z,12.80
2018-11-13T01:30:17.599Z,10.77
2018-11-13T01:32:47.187Z,10.40
2018-11-13T01:35:17.420Z,8.93
2018-11-13T01:37:46.938Z,13.27
2018-11-13T01:40:17.809Z,10.40
2018-11-13T01:42:46.987Z,8.23
2018-11-13T01:45:17.083Z,10.20
2018-11-13T01:47:46.208Z,10.93
2018-11-13T01:50:15.678Z,10.00
2018-11-13T01:52:44.843Z,9.53
2018-11-13T01:55:15.082Z,9.30
2018-11-13T01:57:44.225Z,11.13
2018-11-13T02:00:17.348Z,9.47
2018-11-13T02:02:47.737Z,9.23
2018-11-13T02:05:17.835Z,9.10
2018-11-13T02:07:47.077Z,9.33
2018-11-13T02:10:16.787Z,10.10
2018-11-13T02:12:46.236Z,9.70
2018-11-13T02:15:15.469Z,9.30
2018-11-13T02:17:44.911Z,10.50
2018-11-13T02:20:16.792Z,8.30
2018-11-13T02:22:45.957Z,9.87
2018-11-13T02:25:16.309Z,9.27
2018-11-13T02:27:45.777Z,8.77
2018-11-13T02:30:16.712Z,7.87
2018-11-13T02:32:46.536Z,10.67
2018-11-13T02:35:16.192Z,8.03
2018-11-13T02:37:45.568Z,7.80
2018-11-13T02:40:14.882Z,8.80
2018-11-13T02:42:44.109Z,12.07
2018-11-13T02:45:15.041Z,9.23
2018-11-13T02:47:44.263Z,7.17
2018-11-13T02:50:15.558Z,8.97
2018-11-13T02:52:44.720Z,8.53
2018-11-13T02:55:14.376Z,7.50
2018-11-13T02:57:44.223Z,7.67
2018-11-13T03:00:15.091Z,7.23
2018-11-13T03:02:44.380Z,7.27
2018-11-13T03:05:15.779Z,9.53
2018-11-13T03:07:44.946Z,11.03
2018-11-13T03:10:15.609Z,7.77
2018-11-13T03:12:44.752Z,8.30
2018-11-13T03:15:15.117Z,7.13
2018-11-13T03:17:44.327Z,8.23
2018-11-13T03:20:15.257Z,7.13
2018-11-13T03:22:45.031Z,8.07
2018-11-13T03:25:15.827Z,8.70
2018-11-13T03:27:44.947Z,7.13
2018-11-13T03:30:20.561Z,8.10
2018-11-13T03:32:49.788Z,8.77
2018-11-13T03:35:18.956Z,6.80
2018-11-13T03:37:48.109Z,8.73
2018-11-13T03:40:17.513Z,8.17
2018-11-13T03:42:47.656Z,6.37
2018-11-13T03:45:17.392Z,8.33
2018-11-13T03:47:46.556Z,7.40
2018-11-13T03:50:17.048Z,7.43
2018-11-13T03:52:46.632Z,7.10
2018-11-13T03:55:16.315Z,6.73
2018-11-13T03:57:46.168Z,6.50
2018-11-13T04:00:16.597Z,5.40
2018-11-13T04:02:45.791Z,5.60
2018-11-13T04:05:17.141Z,7.07
2018-11-13T04:07:49.370Z,6.40
2018-11-13T04:10:19.495Z,5.60
2018-11-13T04:12:48.658Z,6.93
2018-11-13T04:15:21.090Z,8.20
2018-11-13T04:17:50.248Z,6.30
2018-11-13T04:20:20.661Z,6.77
2018-11-13T04:22:49.901Z,5.67
2018-11-13T04:25:19.063Z,6.77
2018-11-13T04:27:48.247Z,6.63
2018-11-13T04:30:18.588Z,5.10
2018-11-13T04:32:47.773Z,7.00
2018-11-13T04:35:17.762Z,6.73
2018-11-13T04:37:46.861Z,4.97
2018-11-13T04:40:17.128Z,5.23
2018-11-13T04:42:47.717Z,5.87
2018-11-13T04:45:18.104Z,5.03
2018-11-13T04:47:48.095Z,6.33
2018-11-13T04:50:18.175Z,4.60
2018-11-13T04:52:47.419Z,5.00
2018-11-13T04:55:16.839Z,4.87
2018-11-13T04:57:46.853Z,5.07
2018-11-13T05:00:20.985Z,5.23
2018-11-13T05:02:50.243Z,5.47
2018-11-13T05:05:20.125Z,6.43
2018-11-13T05:07:53.680Z,6.60
2018-11-13T05:10:23.128Z,8.77
2018-11-13T05:12:52.417Z,4.53
2018-11-13T05:15:21.576Z,5.70
2018-11-13T05:17:50.749Z,5.60
2018-11-13T05:20:19.838Z,7.77
2018-11-13T05:22:49.017Z,6.47
2018-11-13T05:25:20.336Z,5.63
2018-11-13T05:27:49.470Z,7.03
2018-11-13T05:30:19.830Z,7.03
2018-11-13T05:32:49.080Z,5.53
2018-11-13T05:35:19.269Z,7.57
2018-11-13T05:37:48.560Z,8.13
2018-11-13T05:40:20.971Z,7.40
2018-11-13T05:42:50.148Z,5.73
2018-11-13T05:45:21.798Z,7.77
2018-11-13T05:47:50.998Z,6.93
2018-11-13T05:50:20.613Z,8.37
2018-11-13T05:52:51.794Z,9.13
2018-11-13T05:55:20.920Z,6.67
2018-11-13T05:57:50.180Z,8.40
2018-11-13T06:00:21.045Z,10.80
2018-11-13T06:02:50.195Z,7.23
2018-11-13T06:05:19.326Z,10.20
2018-11-13T06:07:48.373Z,7.63
2018-11-13T06:10:17.620Z,9.03
2018-11-13T06:12:46.824Z,6.27
2018-11-13T06:15:15.888Z,9.50
2018-11-13T06:17:45.092Z,8.50
2018-11-13T06:20:15.336Z,8.77
2018-11-13T06:22:44.549Z,7.53
2018-11-13T06:25:15.224Z,7.67
2018-11-13T06:27:45.303Z,7.87
2018-11-13T06:30:16.765Z,7.13
2018-11-13T06:32:46.506Z,8.03
2018-11-13T06:35:15.573Z,10.40
2018-11-13T06:37:44.614Z,8.50
2018-11-13T06:40:13.805Z,9.27
2018-11-13T06:42:42.961Z,7.47
2018-11-13T06:45:16.241Z,9.03
2018-11-13T06:47:46.042Z,7.30
2018-11-13T06:50:15.175Z,9.03
2018-11-13T06:52:44.923Z,6.80
2018-11-13T06:55:35.531Z,7.83
2018-11-13T06:58:04.866Z,7.40
2018-11-13T07:00:34.011Z,8.33
2018-11-13T07:03:03.187Z,8.17
2018-11-13T07:05:32.348Z,7.93
2018-11-13T07:08:01.468Z,8.10
2018-11-13T07:10:30.832Z,8.37
2018-11-13T07:13:00.189Z,8.73
2018-11-13T07:15:30.580Z,9.50
2018-11-13T07:18:02.060Z,8.73
2018-11-13T07:20:32.393Z,6.70
2018-11-13T07:23:01.565Z,7.53
2018-11-13T07:25:30.685Z,9.93
2018-11-13T07:27:59.947Z,8.40
2018-11-13T07:30:29.491Z,8.10
2018-11-13T07:32:58.598Z,8.20
2018-11-13T07:35:27.709Z,7.63
2018-11-13T07:37:58.140Z,8.47
2018-11-13T07:40:27.328Z,7.77
2018-11-13T07:42:56.614Z,7.50
2018-11-13T07:45:25.861Z,8.03
2018-11-13T07:47:55.341Z,9.17
2018-11-13T07:50:24.505Z,9.17
2018-11-13T07:52:53.646Z,9.43
2018-11-13T07:55:22.709Z,6.73
2018-11-13T07:57:51.791Z,7.97
2018-11-13T08:00:22.407Z,6.37
2018-11-13T08:02:52.828Z,7.43
2018-11-13T08:05:22.220Z,7.10
2018-11-13T08:07:51.279Z,6.40
2018-11-13T08:10:20.640Z,6.83
2018-11-13T08:12:49.802Z,9.30
2018-11-13T08:15:19.009Z,5.93
2018-11-13T08:17:48.094Z,10.50
2018-11-13T08:20:17.357Z,7.20
2018-11-13T08:22:46.536Z,8.57
2018-11-13T08:25:15.822Z,7.13
2018-11-13T08:27:45.072Z,7.50
2018-11-13T08:30:16.702Z,8.87
2018-11-13T08:32:46.482Z,7.27
2018-11-13T08:35:16.056Z,10.07
2018-11-13T08:37:45.225Z,7.63
2018-11-13T08:40:15.565Z,7.07
2018-11-13T08:42:45.562Z,9.33
2018-11-13T08:45:15.228Z,6.67
2018-11-13T08:47:44.385Z,8.50
2018-11-13T08:50:14.415Z,7.70
2018-11-13T08:52:44.270Z,8.40
2018-11-13T08:55:13.777Z,9.60
2018-11-13T08:57:43.157Z,6.67
2018-11-13T09:00:14.371Z,7.23
2018-11-13T09:02:44.202Z,8.10
2018-11-13T09:05:13.386Z,8.40
2018-11-13T09:07:42.532Z,9.20
2018-11-13T09:10:12.966Z,7.60
2018-11-13T09:12:42.875Z,7.60
2018-11-13T09:15:13.687Z,9.37
2018-11-13T09:17:42.864Z,6.23
2018-11-13T09:20:15.312Z,8.43
2018-11-13T09:22:44.472Z,8.50
2018-11-13T09:25:15.005Z,9.63
2018-11-13T09:27:44.196Z,8.97
2018-11-13T09:30:15.459Z,9.80
2018-11-13T09:32:45.024Z,11.87
2018-11-13T09:35:15.231Z,11.80
2018-11-13T09:37:44.423Z,10.73
2018-11-13T09:40:18.007Z,11.03
2018-11-13T09:42:48.283Z,11.23
2018-11-13T09:45:17.882Z,15.07
2018-11-13T09:47:47.073Z,13.07
2018-11-13T09:50:17.512Z,11.17
2018-11-13T09:52:47.925Z,12.73
2018-11-13T09:55:18.355Z,10.77
2018-11-13T09:57:47.649Z,11.10
2018-11-13T10:00:19.705Z,11.63
2018-11-13T10:02:50.468Z,14.20
2018-11-13T10:05:20.171Z,13.23
2018-11-13T10:07:50.158Z,15.13
2018-11-13T10:10:19.258Z,12.07
2018-11-13T10:12:48.740Z,12.97
2018-11-13T10:15:24.228Z,14.20
2018-11-13T10:17:53.457Z,13.30
2018-11-13T10:20:22.456Z,11.27
2018-11-13T10:22:52.748Z,16.07
2018-11-13T10:25:21.836Z,14.60
2018-11-13T10:27:50.978Z,13.63
2018-11-13T10:30:21.415Z,14.33
2018-11-13T10:32:51.212Z,15.00
2018-11-13T10:35:21.752Z,12.23
2018-11-13T10:37:50.873Z,13.17
2018-11-13T10:40:21.089Z,15.67
2018-11-13T10:42:50.575Z,15.10
2018-11-13T10:45:23.157Z,17.97
2018-11-13T10:47:52.392Z,12.13
2018-11-13T10:50:22.852Z,14.93
2018-11-13T10:52:52.146Z,15.03
2018-11-13T10:55:21.231Z,14.03
2018-11-13T10:57:50.433Z,15.33
2018-11-13T11:00:24.674Z,16.40
2018-11-13T11:03:56.244Z,14.10
2018-11-13T11:06:25.365Z,16.37
2018-11-13T11:08:54.371Z,17.13
2018-11-13T11:11:23.521Z,16.77
2018-11-13T11:13:52.769Z,16.17
2018-11-13T11:16:22.362Z,16.87
2018-11-13T11:18:51.676Z,19.53
2018-11-13T11:21:20.738Z,16.33
2018-11-13T11:23:49.960Z,16.13
2018-11-13T11:26:19.095Z,17.07
2018-11-13T11:28:48.206Z,16.73
2018-11-13T11:31:18.349Z,21.53
2018-11-13T11:33:47.541Z,18.70
2018-11-13T11:36:16.750Z,16.50
2018-11-13T11:38:45.911Z,14.53
2018-11-13T11:41:15.024Z,16.93
2018-11-13T11:43:44.146Z,15.90
2018-11-13T11:46:13.285Z,15.77
2018-11-13T11:48:42.429Z,20.17
2018-11-13T11:51:11.468Z,16.43
2018-11-13T11:53:40.648Z,22.27
2018-11-13T11:56:09.708Z,20.73
2018-11-13T11:58:38.810Z,20.97
2018-11-13T12:01:10.731Z,21.73
2018-11-13T12:03:39.953Z,20.47
2018-11-13T12:06:09.000Z,19.10
2018-11-13T12:08:38.121Z,19.70
2018-11-13T12:11:07.174Z,20.10
2018-11-13T12:13:36.385Z,18.90
2018-11-13T12:16:05.588Z,20.83
2018-11-13T12:18:34.690Z,19.00
2018-11-13T12:21:03.829Z,20.40
2018-11-13T12:23:32.923Z,21.17
2018-11-13T12:26:02.071Z,22.70
2018-11-13T12:28:31.185Z,20.37
2018-11-13T12:31:00.357Z,21.47
2018-11-13T12:33:29.568Z,18.57
2018-11-13T12:35:58.787Z,22.00
2018-11-13T12:38:27.929Z,23.67
2018-11-13T12:40:57.156Z,20.70
2018-11-13T12:43:26.206Z,23.97
2018-11-13T12:45:55.461Z,22.10
2018-11-13T12:48:24.596Z,24.57
2018-11-13T12:51:02.846Z,25.13
2018-11-13T12:53:32.183Z,23.80
2018-11-13T12:56:01.385Z,28.50
2018-11-13T12:58:31.451Z,31.07
2018-11-13T13:01:01.096Z,25.37
2018-11-13T13:03:30.312Z,22.53
2018-11-13T13:05:59.381Z,27.07
2018-11-13T13:08:28.551Z,21.93
2018-11-13T13:10:57.681Z,25.70
2018-11-13T13:13:26.829Z,27.47
2018-11-13T13:15:55.929Z,25.20
2018-11-13T13:18:25.005Z,25.97
2018-11-13T13:20:54.110Z,29.67
2018-11-13T13:23:23.296Z,30.53
2018-11-13T13:25:52.564Z,29.40
2018-11-13T13:28:21.584Z,29.60
2018-11-13T13:30:50.718Z,29.03
2018-11-13T13:33:19.868Z,30.40
2018-11-13T13:35:50.397Z,27.77
2018-11-13T13:38:19.493Z,31.60
2018-11-13T13:40:50.132Z,28.57
2018-11-13T13:43:19.922Z,30.53
2018-11-13T13:45:49.876Z,35.43
2018-11-13T13:48:19.368Z,31.37
2018-11-13T13:50:48.710Z,32.50
2018-11-13T13:53:19.010Z,34.47
2018-11-13T13:55:48.657Z,33.40
2018-11-13T13:58:18.349Z,33.03
2018-11-13T14:00:47.702Z,35.27
2018-11-13T14:03:17.041Z,33.33
2018-11-13T14:05:46.739Z,31.30
2018-11-13T14:08:16.606Z,25.43
2018-11-13T14:10:45.957Z,31.43
2018-11-13T14:13:15.499Z,37.17
2018-11-13T14:15:44.581Z,27.23
2018-11-13T14:18:14.034Z,31.67
2018-11-13T14:20:43.118Z,28.70
2018-11-13T14:23:12.222Z,29.83
2018-11-13T14:25:41.377Z,33.97
2018-11-13T14:28:10.462Z,30.07
2018-11-13T14:30:39.640Z,30.20
2018-11-13T14:33:10.230Z,27.33
2018-11-13T14:35:39.467Z,31.07
2018-11-13T14:38:08.558Z,27.77
2018-11-13T14:40:39.897Z,29.87
2018-11-13T14:43:09.380Z,26.57
2018-11-13T14:45:38.590Z,28.20
2018-11-13T14:48:08.310Z,25.90
2018-11-13T14:50:37.846Z,26.83
2018-11-13T14:53:07.990Z,27.17
2018-11-13T14:55:41.208Z,27.70
2018-11-13T14:58:11.772Z,28.23
2018-11-13T15:00:41.251Z,26.17
2018-11-13T15:03:13.625Z,23.20
2018-11-13T15:05:42.784Z,27.47
2018-11-13T15:08:12.338Z,25.07
2018-11-13T15:10:46.955Z,27.67
2018-11-13T15:13:16.248Z,28.03
2018-11-13T15:15:45.455Z,26.40
2018-11-13T15:18:14.631Z,24.70
2018-11-13T15:20:44.322Z,23.90
2018-11-13T15:23:13.999Z,24.33
2018-11-13T15:25:43.181Z,27.33
2018-11-13T15:28:12.795Z,23.33
2018-11-13T15:30:45.437Z,24.13
2018-11-13T15:33:18.661Z,26.33
2018-11-13T15:35:47.794Z,30.83
2018-11-13T15:38:16.989Z,30.77
2018-11-13T15:40:46.185Z,31.13
2018-11-13T15:43:15.345Z,27.17
2018-11-13T15:45:44.497Z,26.37
2018-11-13T15:48:14.564Z,29.53
2018-11-13T15:50:43.863Z,27.93
2018-11-13T15:53:13.083Z,31.10
2018-11-13T15:55:42.130Z,31.30
2018-11-13T15:58:11.225Z,28.77
2018-11-13T16:00:41.385Z,29.47
2018-11-13T16:03:13.097Z,30.53
2018-11-13T16:05:44.335Z,37.03
2018-11-13T16:08:13.645Z,35.17
2018-11-13T16:10:42.794Z,34.27
2018-11-13T16:13:12.171Z,30.43
2018-11-13T16:15:41.558Z,28.07
2018-11-13T16:18:13.226Z,28.97
2018-11-13T16:20:42.357Z,38.17
2018-11-13T16:23:11.501Z,33.10
2018-11-13T16:25:40.606Z,31.10
2018-11-13T16:28:09.703Z,29.03
2018-11-13T16:30:39.712Z,30.30
2018-11-13T16:33:08.912Z,29.53
2018-11-13T16:35:38.029Z,27.53
2018-11-13T16:38:08.938Z,28.27
2018-11-13T16:40:37.939Z,30.50
2018-11-13T16:43:07.047Z,33.93
2018-11-13T16:45:36.577Z,33.60
2018-11-13T16:48:06.723Z,30.40
2018-11-13T16:50:37.037Z,34.70
2018-11-13T16:53:06.734Z,32.97
2018-11-13T16:55:40.924Z,31.23
2018-11-13T16:58:11.717Z,33.00
2018-11-13T17:00:41.059Z,34.97
2018-11-13T17:03:10.016Z,30.50
2018-11-13T17:05:39.081Z,33.13
2018-11-13T17:08:08.305Z,34.43
2018-11-13T17:10:40.272Z,34.37
2018-11-13T17:13:09.452Z,28.93
2018-11-13T17:15:38.926Z,40.60
2018-11-13T17:18:08.372Z,36.77
2018-11-13T17:20:37.482Z,37.37
2018-11-13T17:23:06.600Z,38.33
2018-11-13T17:25:37.240Z,36.07
2018-11-13T17:28:07.105Z,37.00
2018-11-13T17:30:36.729Z,43.63
2018-11-13T17:33:07.637Z,39.40
2018-11-13T17:35:36.722Z,39.50
2018-11-13T17:38:06.377Z,41.50
2018-11-13T17:40:36.458Z,39.47
2018-11-13T17:43:06.774Z,40.93
2018-11-13T17:45:37.364Z,40.27
2018-11-13T17:48:07.723Z,43.63
2018-11-13T17:50:40.038Z,42.23
2018-11-13T17:53:10.289Z,39.73
2018-11-13T17:55:39.879Z,38.00
2018-11-13T17:58:10.924Z,39.07
2018-11-13T18:00:42.408Z,44.73
2018-11-13T18:03:13.537Z,38.57
2018-11-13T18:05:43.807Z,39.33
2018-11-13T18:08:14.051Z,45.37
2018-11-13T18:10:45.496Z,40.37
2018-11-13T18:13:16.373Z,38.47
2018-11-13T18:15:47.376Z,37.57
2018-11-13T18:18:17.780Z,39.40
2018-11-13T18:20:48.236Z,44.53
2018-11-13T18:23:19.055Z,45.67
2018-11-13T18:25:50.308Z,37.17
2018-11-13T18:28:21.165Z,42.97
2018-11-13T18:30:51.877Z,41.40
2018-11-13T18:33:22.580Z,40.10
2018-11-13T18:35:52.794Z,39.97
2018-11-13T18:38:23.086Z,43.33
2018-11-13T18:40:52.888Z,40.97
2018-11-13T18:43:22.339Z,44.87
2018-11-13T18:45:51.623Z,40.83
2018-11-13T18:48:20.877Z,42.33
2018-11-13T18:50:50.028Z,42.33
2018-11-13T18:53:19.203Z,46.33
2018-11-13T18:55:48.296Z,41.53
2018-11-13T18:58:17.616Z,42.33
2018-11-13T19:00:47.553Z,41.30
2018-11-13T19:03:16.628Z,39.93
2018-11-13T19:05:45.928Z,41.80
2018-11-13T19:08:15.132Z,43.83
2018-11-13T19:10:45.639Z,43.17
2018-11-13T19:13:17.276Z,42.20
2018-11-13T19:15:49.943Z,43.57
2018-11-13T19:18:19.869Z,40.53
2018-11-13T19:20:49.314Z,43.97
2018-11-13T19:23:19.424Z,41.33
2018-11-13T19:25:49.316Z,38.37
2018-11-13T19:28:18.681Z,44.27
2018-11-13T19:30:47.914Z,41.93
2018-11-13T19:33:17.056Z,40.63
2018-11-13T19:35:46.341Z,43.37
2018-11-13T19:38:15.603Z,45.47
2018-11-13T19:40:45.273Z,42.53
2018-11-13T19:43:16.271Z,41.93
2018-11-13T19:45:46.066Z,41.43
2018-11-13T19:48:15.793Z,43.07
2018-11-13T19:50:45.562Z,44.00
2018-11-13T19:53:15.800Z,42.80
2018-11-13T19:55:45.816Z,49.17
2018-11-13T19:58:15.638Z,45.40
2018-11-13T20:00:45.633Z,40.90
2018-11-13T20:03:15.575Z,44.90
2018-11-13T20:05:45.156Z,42.77
2018-11-13T20:08:14.379Z,41.90
2018-11-13T20:10:43.538Z,51.90
2018-11-13T20:13:12.703Z,43.57
2018-11-13T20:15:41.835Z,41.50
2018-11-13T20:18:10.984Z,42.03
2018-11-13T20:20:40.158Z,43.30
2018-11-13T20:23:10.246Z,45.83
2018-11-13T20:25:39.379Z,41.80
2018-11-13T20:28:08.633Z,41.10
2018-11-13T20:30:39.329Z,42.60
2018-11-13T20:33:08.771Z,46.60
2018-11-13T20:35:38.572Z,40.47
2018-11-13T20:38:08.965Z,41.70
2018-11-13T20:40:39.313Z,45.77
2018-11-13T20:43:10.954Z,44.03
2018-11-13T20:45:40.590Z,47.53
2018-11-13T20:48:10.624Z,43.63
2018-11-13T20:50:40.942Z,42.30
2018-11-13T20:53:11.365Z,44.80
2018-11-13T20:55:42.036Z,41.23
2018-11-13T20:58:12.249Z,46.27
2018-11-13T21:00:42.548Z,40.83
2018-11-13T21:03:12.546Z,43.17
2018-11-13T21:05:43.150Z,44.47
2018-11-13T21:08:13.161Z,41.73
2018-11-13T21:10:43.308Z,39.87
2018-11-13T21:13:13.004Z,41.13
2018-11-13T21:15:42.999Z,47.83
2018-11-13T21:18:12.878Z,44.57
2018-11-13T21:20:42.707Z,42.03
2018-11-13T21:23:12.453Z,41.53
2018-11-13T21:25:42.263Z,39.80
2018-11-13T21:28:12.008Z,41.47
2018-11-13T21:30:41.645Z,41.03
2018-11-13T21:33:10.948Z,41.87
2018-11-13T21:35:40.403Z,38.83
2018-11-13T21:38:09.605Z,47.67
2018-11-13T21:40:38.980Z,41.50
2018-11-13T21:43:08.657Z,42.43
2018-11-13T21:45:38.287Z,43.17
2018-11-13T21:48:08.350Z,42.93
2018-11-13T21:50:38.417Z,42.83
2018-11-13T21:53:08.847Z,38.10
2018-11-13T21:55:39.507Z,42.63
2018-11-13T21:58:10.101Z,40.73
2018-11-13T22:00:41.567Z,42.53
2018-11-13T22:03:12.961Z,41.87
2018-11-13T22:05:43.967Z,42.30
2018-11-13T22:08:15.100Z,39.87
2018-11-13T22:10:46.123Z,46.53
2018-11-13T22:13:17.317Z,41.30
2018-11-13T22:15:47.517Z,42.00
2018-11-13T22:18:17.125Z,46.43
2018-11-13T22:20:46.733Z,44.53
2018-11-13T22:23:16.189Z,45.57
2018-11-13T22:25:45.445Z,42.90
2018-11-13T22:28:14.667Z,41.90
2018-11-13T22:30:43.805Z,44.70
2018-11-13T22:33:12.924Z,46.90
2018-11-13T22:35:42.016Z,42.67
2018-11-13T22:38:11.230Z,43.57
2018-11-13T22:40:40.341Z,44.77
2018-11-13T22:43:09.416Z,41.17
2018-11-13T22:45:38.506Z,42.40
2018-11-13T22:48:07.742Z,43.60
2018-11-13T22:50:36.921Z,39.17
2018-11-13T22:53:06.188Z,43.13
2018-11-13T22:55:35.343Z,38.23
2018-11-13T22:58:04.543Z,35.97
2018-11-13T23:00:38.939Z,36.90
2018-11-13T23:03:09.343Z,28.63
2018-11-13T23:05:38.579Z,29.63
2018-11-13T23:08:08.884Z,25.77
2018-11-13T23:10:38.090Z,24.67
2018-11-13T23:13:07.284Z,22.23
2018-11-13T23:15:36.349Z,23.83
2018-11-13T23:18:05.849Z,20.77
2018-11-13T23:20:35.033Z,20.73
2018-11-13T23:23:04.170Z,20.30
2018-11-13T23:25:33.999Z,18.40
2018-11-13T23:28:03.279Z,20.47
2018-11-13T23:30:32.458Z,17.43
2018-11-13T23:33:01.798Z,17.57
2018-11-13T23:35:30.837Z,23.17
2018-11-13T23:38:00.744Z,18.10
2018-11-13T23:40:30.145Z,20.20
2018-11-13T23:42:59.345Z,21.17
2018-11-13T23:45:28.595Z,16.87
2018-11-13T23:47:57.780Z,17.37
2018-11-13T23:50:27.093Z,19.37
2018-11-13T23:52:55.999Z,18.67
2018-11-13T23:55:25.181Z,15.17
2018-11-13T23:57:54.391Z,18.43
